createdAt,value
2023-12-24T00:00:21.064Z,4.97
2023-12-24T00:00:52.476Z,6.68
2023-12-24T00:01:23.917Z,4.35
2023-12-24T00:01:55.400Z,5.53
2023-12-24T00:02:26.879Z,6.57
2023-12-24T00:03:00.815Z,8.88
2023-12-24T00:03:35.402Z,5.13
2023-12-24T00:04:06.808Z,11.23
2023-12-24T00:04:38.306Z,7.15
2023-12-24T00:05:09.894Z,7.40
2023-12-24T00:05:41.404Z,9.07
2023-12-24T00:06:12.969Z,5.90
2023-12-24T00:06:44.542Z,5.40
2023-12-24T00:07:15.980Z,8.73
2023-12-24T00:07:47.398Z,10.73
2023-12-24T00:08:18.905Z,6.97
2023-12-24T00:08:50.325Z,6.95
2023-12-24T00:09:21.792Z,8.25
2023-12-24T00:09:53.233Z,6.00
2023-12-24T00:10:24.678Z,7.93
2023-12-24T00:10:59.791Z,5.57
2023-12-24T00:11:32.348Z,9.95
2023-12-24T00:12:54.575Z,4.38
2023-12-24T00:13:27.406Z,5.75
2023-12-24T00:13:58.945Z,8.73
2023-12-24T00:14:30.529Z,6.15
2023-12-24T00:15:02.298Z,7.80
2023-12-24T00:15:33.816Z,6.35
2023-12-24T00:16:05.369Z,7.68
2023-12-24T00:16:41.384Z,7.63
2023-12-24T00:17:13.334Z,6.90
2023-12-24T00:17:44.885Z,7.38
2023-12-24T00:18:16.765Z,4.13
2023-12-24T00:18:48.431Z,10.57
2023-12-24T00:19:19.969Z,7.43
2023-12-24T00:19:51.435Z,5.07
2023-12-24T00:20:22.966Z,4.90
2023-12-24T00:20:54.498Z,9.43
2023-12-24T00:21:26.009Z,8.27
2023-12-24T00:21:57.478Z,4.97
2023-12-24T00:22:29.641Z,3.40
2023-12-24T00:23:05.634Z,5.43
2023-12-24T00:23:37.131Z,8.95
2023-12-24T00:24:11.846Z,6.05
2023-12-24T00:25:03.046Z,8.68
2023-12-24T00:25:41.768Z,7.35
2023-12-24T00:26:13.479Z,9.38
2023-12-24T00:26:45.050Z,6.63
2023-12-24T00:27:16.649Z,5.80
2023-12-24T00:27:48.062Z,7.07
2023-12-24T00:28:19.527Z,5.00
2023-12-24T00:28:52.379Z,6.65
2023-12-24T00:29:23.918Z,7.78
2023-12-24T00:29:55.397Z,7.35
2023-12-24T00:30:30.330Z,12.48
2023-12-24T00:31:01.898Z,4.45
2023-12-24T00:31:33.887Z,6.18
2023-12-24T00:32:05.864Z,5.70
2023-12-24T00:33:26.386Z,5.50
2023-12-24T00:33:58.706Z,9.90
2023-12-24T00:34:30.283Z,5.55
2023-12-24T00:35:01.798Z,9.38
2023-12-24T00:35:35.230Z,8.00
2023-12-24T00:36:07.085Z,7.18
2023-12-24T00:36:38.537Z,7.35
2023-12-24T00:37:09.971Z,5.50
2023-12-24T00:37:41.401Z,3.80
2023-12-24T00:38:12.853Z,10.13
2023-12-24T00:38:44.462Z,9.47
2023-12-24T00:39:15.972Z,4.50
2023-12-24T00:39:47.396Z,10.10
2023-12-24T00:40:19.984Z,6.70
2023-12-24T00:40:51.444Z,5.90
2023-12-24T00:41:22.989Z,7.10
2023-12-24T00:41:54.563Z,7.43
2023-12-24T00:42:44.592Z,6.53
2023-12-24T00:43:16.143Z,12.75
2023-12-24T00:44:06.152Z,5.47
2023-12-24T00:44:39.056Z,7.17
2023-12-24T00:45:11.336Z,8.27
2023-12-24T00:45:42.802Z,4.75
2023-12-24T00:46:17.583Z,9.65
2023-12-24T00:46:49.073Z,8.13
2023-12-24T00:47:20.556Z,10.65
2023-12-24T00:47:52.253Z,5.40
2023-12-24T00:48:24.052Z,5.35
2023-12-24T00:48:55.680Z,4.32
2023-12-24T00:49:30.078Z,7.78
2023-12-24T00:50:01.990Z,6.83
2023-12-24T00:50:52.339Z,6.50
2023-12-24T00:51:23.771Z,7.93
2023-12-24T00:51:56.534Z,7.63
2023-12-24T00:52:27.993Z,5.00
2023-12-24T00:52:59.483Z,7.82
2023-12-24T00:53:30.963Z,7.65
2023-12-24T00:54:02.829Z,6.65
2023-12-24T00:54:34.292Z,8.30
2023-12-24T00:55:06.228Z,8.70
2023-12-24T00:55:37.931Z,6.17
2023-12-24T00:56:09.407Z,9.30
2023-12-24T00:56:40.910Z,5.22
2023-12-24T00:57:12.398Z,7.45
2023-12-24T00:57:43.893Z,5.68
2023-12-24T00:58:16.118Z,8.70
2023-12-24T00:58:47.529Z,7.00
2023-12-24T00:59:19.039Z,6.00
2023-12-24T00:59:50.498Z,6.03
2023-12-24T01:01:11.143Z,5.77
2023-12-24T01:01:42.754Z,6.40
2023-12-24T01:02:14.270Z,5.38
2023-12-24T01:02:45.756Z,7.13
2023-12-24T01:03:17.298Z,8.05
2023-12-24T01:03:48.798Z,6.18
2023-12-24T01:04:20.295Z,6.13
2023-12-24T01:04:51.753Z,6.68
2023-12-24T01:05:23.386Z,10.25
2023-12-24T01:05:55.007Z,8.80
2023-12-24T01:06:26.539Z,6.13
2023-12-24T01:06:58.341Z,8.63
2023-12-24T01:07:29.830Z,9.40
2023-12-24T01:08:01.224Z,7.15
2023-12-24T01:08:32.718Z,4.20
2023-12-24T01:09:04.126Z,5.78
2023-12-24T01:09:38.609Z,6.95
2023-12-24T01:10:10.814Z,9.35
2023-12-24T01:10:42.258Z,5.75
2023-12-24T01:11:14.043Z,5.47
2023-12-24T01:11:45.477Z,7.97
2023-12-24T01:12:17.251Z,8.45
2023-12-24T01:12:49.249Z,8.05
2023-12-24T01:13:21.480Z,7.05
2023-12-24T01:13:52.901Z,7.00
2023-12-24T01:14:24.385Z,8.60
2023-12-24T01:14:55.937Z,5.40
2023-12-24T01:15:27.555Z,7.57
2023-12-24T01:16:17.724Z,6.72
2023-12-24T01:16:49.145Z,7.53
2023-12-24T01:17:21.310Z,8.37
2023-12-24T01:17:52.820Z,7.82
2023-12-24T01:18:24.414Z,6.53
2023-12-24T01:18:55.944Z,7.15
2023-12-24T01:19:28.280Z,14.40
2023-12-24T01:19:59.765Z,7.18
2023-12-24T01:20:31.659Z,10.98
2023-12-24T01:21:03.325Z,7.25
2023-12-24T01:21:35.155Z,8.60
2023-12-24T01:22:07.148Z,8.50
2023-12-24T01:22:38.801Z,9.73
2023-12-24T01:23:10.358Z,10.07
2023-12-24T01:23:41.950Z,5.20
2023-12-24T01:24:13.428Z,6.10
2023-12-24T01:24:44.853Z,8.05
2023-12-24T01:25:16.372Z,7.75
2023-12-24T01:25:47.774Z,5.07
2023-12-24T01:26:19.153Z,11.95
2023-12-24T01:26:50.567Z,8.35
2023-12-24T01:27:22.010Z,10.77
2023-12-24T01:27:54.677Z,8.30
2023-12-24T01:28:26.114Z,9.13
2023-12-24T01:28:57.572Z,6.57
2023-12-24T01:29:29.008Z,10.02
2023-12-24T01:30:00.428Z,9.25
2023-12-24T01:30:31.906Z,6.70
2023-12-24T01:31:03.403Z,8.23
2023-12-24T01:31:34.954Z,8.60
2023-12-24T01:32:06.729Z,7.50
2023-12-24T01:32:38.348Z,6.97
2023-12-24T01:33:10.208Z,7.50
2023-12-24T01:33:41.921Z,9.20
2023-12-24T01:34:13.553Z,8.90
2023-12-24T01:34:44.997Z,8.75
2023-12-24T01:35:16.450Z,9.32
2023-12-24T01:35:48.329Z,7.53
2023-12-24T01:36:20.673Z,7.53
2023-12-24T01:36:52.130Z,10.55
2023-12-24T01:37:23.600Z,9.32
2023-12-24T01:37:55.313Z,7.70
2023-12-24T01:38:27.030Z,8.43
2023-12-24T01:38:58.476Z,5.90
2023-12-24T01:39:30.465Z,10.90
2023-12-24T01:40:02.494Z,9.77
2023-12-24T01:40:33.999Z,7.72
2023-12-24T01:41:05.466Z,7.35
2023-12-24T01:41:37.248Z,12.57
2023-12-24T01:42:08.714Z,13.43
2023-12-24T01:42:40.206Z,6.30
2023-12-24T01:43:11.679Z,7.43
2023-12-24T01:43:44.773Z,10.10
2023-12-24T01:44:16.305Z,6.85
2023-12-24T01:44:47.738Z,12.15
2023-12-24T01:45:19.172Z,8.43
2023-12-24T01:45:50.694Z,5.15
2023-12-24T01:46:24.979Z,10.80
2023-12-24T01:46:56.482Z,7.65
2023-12-24T01:47:28.509Z,8.60
2023-12-24T01:48:00.420Z,11.75
2023-12-24T01:48:32.029Z,4.97
2023-12-24T01:49:04.421Z,6.20
2023-12-24T01:49:36.894Z,12.30
2023-12-24T01:50:09.293Z,12.68
2023-12-24T01:50:40.856Z,9.93
2023-12-24T01:51:13.552Z,7.78
2023-12-24T01:51:45.048Z,7.15
2023-12-24T01:52:17.714Z,9.23
2023-12-24T01:52:49.915Z,12.30
2023-12-24T01:53:21.696Z,5.45
2023-12-24T01:53:53.567Z,13.32
2023-12-24T01:54:26.408Z,9.87
2023-12-24T01:54:58.241Z,11.48
2023-12-24T01:55:29.915Z,10.90
2023-12-24T01:56:05.285Z,8.60
2023-12-24T01:56:40.119Z,8.57
2023-12-24T01:57:11.795Z,7.72
2023-12-24T01:57:43.569Z,9.77
2023-12-24T01:58:15.536Z,7.22
2023-12-24T01:58:47.895Z,9.95
2023-12-24T01:59:20.227Z,11.68
2023-12-24T01:59:52.808Z,12.57
2023-12-24T02:00:24.316Z,8.60
2023-12-24T02:00:57.268Z,8.25
2023-12-24T02:01:28.728Z,10.38
2023-12-24T02:02:00.441Z,5.93
2023-12-24T02:02:33.004Z,9.93
2023-12-24T02:03:05.408Z,11.05
2023-12-24T02:03:37.451Z,11.10
2023-12-24T02:04:09.895Z,8.23
2023-12-24T02:04:42.153Z,7.28
2023-12-24T02:05:32.134Z,9.93
2023-12-24T02:06:05.159Z,11.15
2023-12-24T02:06:37.765Z,8.25
2023-12-24T02:07:11.944Z,6.32
2023-12-24T02:07:45.683Z,9.38
2023-12-24T02:08:19.987Z,7.55
2023-12-24T02:08:51.520Z,7.82
2023-12-24T02:09:23.017Z,9.15
2023-12-24T02:09:55.076Z,9.13
2023-12-24T02:10:27.124Z,8.23
2023-12-24T02:10:59.568Z,7.63
2023-12-24T02:11:31.026Z,7.00
2023-12-24T02:12:02.513Z,11.82
2023-12-24T02:12:36.518Z,11.45
2023-12-24T02:13:08.442Z,10.95
2023-12-24T02:13:40.126Z,8.23
2023-12-24T02:14:11.593Z,8.63
2023-12-24T02:14:43.043Z,11.13
2023-12-24T02:15:14.657Z,7.40
2023-12-24T02:15:48.743Z,12.30
2023-12-24T02:16:22.847Z,8.17
2023-12-24T02:16:57.110Z,9.43
2023-12-24T02:17:29.949Z,8.82
2023-12-24T02:18:02.054Z,11.02
2023-12-24T02:18:33.973Z,9.00
2023-12-24T02:19:07.717Z,12.23
2023-12-24T02:19:39.223Z,6.22
2023-12-24T02:20:11.507Z,8.35
2023-12-24T02:20:42.983Z,6.90
2023-12-24T02:21:14.587Z,8.90
2023-12-24T02:21:46.017Z,9.60
2023-12-24T02:22:17.412Z,14.25
2023-12-24T02:22:49.053Z,8.70
2023-12-24T02:23:20.598Z,8.70
2023-12-24T02:23:52.044Z,9.95
2023-12-24T02:24:41.806Z,11.48
2023-12-24T02:25:13.391Z,14.13
2023-12-24T02:25:46.410Z,9.23
2023-12-24T02:26:27.159Z,9.07
2023-12-24T02:27:15.385Z,10.90
2023-12-24T02:27:52.884Z,9.57
2023-12-24T02:28:29.055Z,14.82
2023-12-24T02:29:08.219Z,8.07
2023-12-24T02:29:43.909Z,10.13
2023-12-24T02:30:24.402Z,10.02
2023-12-24T02:31:16.839Z,10.43
2023-12-24T02:31:52.404Z,11.45
2023-12-24T02:32:26.655Z,9.13
2023-12-24T02:32:59.092Z,8.48
2023-12-24T02:33:52.419Z,6.90
2023-12-24T02:34:24.219Z,11.93
2023-12-24T02:34:59.188Z,11.32
2023-12-24T02:35:38.567Z,9.52
2023-12-24T02:36:13.992Z,12.75
2023-12-24T02:36:47.238Z,8.25
2023-12-24T02:37:18.836Z,7.45
2023-12-24T02:37:50.594Z,6.55
2023-12-24T02:38:22.073Z,5.97
2023-12-24T02:38:53.525Z,7.63
2023-12-24T02:39:24.923Z,6.70
2023-12-24T02:39:57.352Z,11.20
2023-12-24T02:40:28.788Z,10.98
2023-12-24T02:41:00.389Z,8.30
2023-12-24T02:41:31.946Z,8.82
2023-12-24T02:42:03.693Z,9.05
2023-12-24T02:42:35.364Z,9.10
2023-12-24T02:43:06.904Z,8.00
2023-12-24T02:43:38.449Z,9.30
2023-12-24T02:44:11.645Z,7.68
2023-12-24T02:45:01.661Z,7.78
2023-12-24T02:45:33.085Z,8.63
2023-12-24T02:46:04.519Z,4.93
2023-12-24T02:46:35.967Z,9.65
2023-12-24T02:47:07.548Z,9.60
2023-12-24T02:47:39.309Z,8.75
2023-12-24T02:48:10.950Z,9.55
2023-12-24T02:48:42.609Z,9.07
2023-12-24T02:49:15.537Z,12.13
2023-12-24T02:49:47.004Z,7.90
2023-12-24T02:50:19.669Z,7.18
2023-12-24T02:50:52.535Z,10.97
2023-12-24T02:51:23.979Z,8.55
2023-12-24T02:51:55.395Z,11.02
2023-12-24T02:52:26.938Z,9.65
2023-12-24T02:52:58.432Z,5.65
2023-12-24T02:53:29.940Z,5.10
2023-12-24T02:54:01.420Z,10.07
2023-12-24T02:54:32.813Z,10.45
2023-12-24T02:55:04.645Z,9.45
2023-12-24T02:55:36.272Z,10.52
2023-12-24T02:56:07.851Z,6.60
2023-12-24T02:56:39.388Z,10.52
2023-12-24T02:57:10.997Z,6.47
2023-12-24T02:57:42.482Z,10.48
2023-12-24T02:58:13.896Z,8.43
2023-12-24T02:58:45.419Z,6.07
2023-12-24T02:59:16.904Z,6.22
2023-12-24T02:59:48.330Z,5.15
2023-12-24T03:00:19.801Z,7.50
2023-12-24T03:00:51.250Z,9.60
2023-12-24T03:01:22.633Z,10.77
2023-12-24T03:01:54.066Z,7.07
2023-12-24T03:02:25.574Z,9.05
2023-12-24T03:02:57.581Z,6.18
2023-12-24T03:03:29.258Z,7.85
2023-12-24T03:04:00.857Z,5.05
2023-12-24T03:04:32.368Z,7.07
2023-12-24T03:05:04.181Z,7.18
2023-12-24T03:05:35.957Z,5.97
2023-12-24T03:06:07.718Z,7.97
2023-12-24T03:06:39.276Z,8.33
2023-12-24T03:07:10.816Z,8.23
2023-12-24T03:07:42.251Z,6.90
2023-12-24T03:08:13.750Z,4.25
2023-12-24T03:08:45.174Z,11.60
2023-12-24T03:09:16.668Z,5.15
2023-12-24T03:09:48.171Z,3.38
2023-12-24T03:10:19.621Z,5.43
2023-12-24T03:10:51.744Z,4.85
2023-12-24T03:11:41.891Z,7.10
2023-12-24T03:12:13.320Z,6.80
2023-12-24T03:12:44.836Z,3.42
2023-12-24T03:13:16.277Z,7.50
2023-12-24T03:13:47.694Z,8.80
2023-12-24T03:14:19.129Z,4.75
2023-12-24T03:14:50.681Z,5.72
2023-12-24T03:15:22.694Z,4.50
2023-12-24T03:15:55.024Z,9.23
2023-12-24T03:16:26.460Z,4.25
2023-12-24T03:16:58.113Z,7.13
2023-12-24T03:17:29.940Z,3.17
2023-12-24T03:18:01.602Z,4.50
2023-12-24T03:18:33.505Z,6.90
2023-12-24T03:19:05.095Z,5.68
2023-12-24T03:19:36.721Z,4.40
2023-12-24T03:20:09.032Z,2.08
2023-12-24T03:20:40.522Z,2.60
2023-12-24T03:21:12.105Z,5.07
2023-12-24T03:21:43.576Z,3.17
2023-12-24T03:22:15.030Z,2.65
2023-12-24T03:22:46.531Z,4.70
2023-12-24T03:23:18.154Z,4.15
2023-12-24T03:23:49.563Z,5.43
2023-12-24T03:24:21.001Z,5.45
2023-12-24T03:24:52.445Z,5.82
2023-12-24T03:25:23.954Z,4.28
2023-12-24T03:25:55.409Z,4.72
2023-12-24T03:26:26.957Z,5.80
2023-12-24T03:26:58.452Z,5.30
2023-12-24T03:27:29.989Z,2.50
2023-12-24T03:28:01.475Z,2.80
2023-12-24T03:28:32.855Z,2.92
2023-12-24T03:29:04.330Z,3.80
2023-12-24T03:29:35.857Z,2.72
2023-12-24T03:30:08.092Z,1.85
2023-12-24T03:30:39.798Z,2.80
2023-12-24T03:31:14.533Z,2.03
2023-12-24T03:31:47.490Z,4.93
2023-12-24T03:32:18.936Z,2.85
2023-12-24T03:32:50.581Z,4.15
2023-12-24T03:33:22.214Z,3.53
2023-12-24T03:33:54.468Z,4.13
2023-12-24T03:34:25.927Z,5.28
2023-12-24T03:34:57.373Z,2.65
2023-12-24T03:35:28.890Z,1.50
2023-12-24T03:36:00.490Z,2.30
2023-12-24T03:36:31.893Z,2.60
2023-12-24T03:37:03.731Z,3.00
2023-12-24T03:37:35.124Z,2.17
2023-12-24T03:38:06.581Z,3.33
2023-12-24T03:38:38.385Z,1.53
2023-12-24T03:39:10.882Z,2.17
2023-12-24T03:39:42.407Z,1.88
2023-12-24T03:40:13.915Z,4.05
2023-12-24T03:40:45.293Z,2.55
2023-12-24T03:41:16.848Z,2.08
2023-12-24T03:41:48.253Z,2.25
2023-12-24T03:42:19.768Z,1.63
2023-12-24T03:42:51.520Z,1.58
2023-12-24T03:43:23.113Z,2.25
2023-12-24T03:43:54.580Z,2.37
2023-12-24T03:44:26.018Z,2.53
2023-12-24T03:44:57.450Z,1.30
2023-12-24T03:45:28.884Z,1.27
2023-12-24T03:46:00.508Z,1.42
2023-12-24T03:46:33.786Z,1.17
2023-12-24T03:47:05.636Z,1.58
2023-12-24T03:47:37.300Z,1.55
2023-12-24T03:48:09.164Z,1.83
2023-12-24T03:48:40.822Z,4.07
2023-12-24T03:49:13.245Z,1.00
2023-12-24T03:49:44.754Z,0.70
2023-12-24T03:50:16.316Z,2.25
2023-12-24T03:50:48.338Z,3.05
2023-12-24T03:51:19.816Z,1.23
2023-12-24T03:51:51.440Z,1.80
2023-12-24T03:52:22.833Z,1.25
2023-12-24T03:52:55.572Z,1.58
2023-12-24T03:53:29.529Z,1.48
2023-12-24T03:54:01.034Z,1.30
2023-12-24T03:54:32.470Z,1.27
2023-12-24T03:55:04.337Z,1.25
2023-12-24T03:55:35.759Z,1.55
2023-12-24T03:56:07.708Z,1.52
2023-12-24T03:56:39.552Z,1.58
2023-12-24T03:57:11.519Z,1.58
2023-12-24T03:57:42.970Z,1.33
2023-12-24T03:58:14.789Z,2.25
2023-12-24T03:58:47.475Z,1.80
2023-12-24T03:59:19.124Z,1.67
2023-12-24T03:59:51.039Z,2.03
2023-12-24T04:00:22.616Z,1.15
2023-12-24T04:00:56.408Z,1.27
2023-12-24T04:01:28.262Z,1.17
2023-12-24T04:01:59.804Z,1.35
2023-12-24T04:02:31.275Z,1.05
2023-12-24T04:03:21.134Z,2.40
2023-12-24T04:03:52.840Z,1.42
2023-12-24T04:04:24.820Z,1.25
2023-12-24T04:04:56.244Z,0.60
2023-12-24T04:05:27.816Z,1.07
2023-12-24T04:05:59.443Z,1.80
2023-12-24T04:06:31.053Z,0.73
2023-12-24T04:07:03.704Z,1.98
2023-12-24T04:07:35.201Z,2.25
2023-12-24T04:08:06.841Z,0.77
2023-12-24T04:08:38.381Z,2.45
2023-12-24T04:09:10.551Z,1.58
2023-12-24T04:09:42.781Z,1.13
2023-12-24T04:10:14.405Z,1.35
2023-12-24T04:10:46.101Z,1.50
2023-12-24T04:11:18.878Z,1.67
2023-12-24T04:11:51.623Z,0.85
2023-12-24T04:12:23.112Z,2.88
2023-12-24T04:12:54.816Z,1.17
2023-12-24T04:13:26.603Z,2.20
2023-12-24T04:14:48.535Z,1.13
2023-12-24T04:15:20.202Z,2.28
2023-12-24T04:15:51.643Z,1.00
2023-12-24T04:16:23.113Z,1.83
2023-12-24T04:16:54.638Z,1.20
2023-12-24T04:17:26.734Z,1.10
2023-12-24T04:17:58.387Z,0.80
2023-12-24T04:18:29.927Z,1.15
2023-12-24T04:19:01.459Z,1.33
2023-12-24T04:19:51.532Z,3.33
2023-12-24T04:20:23.068Z,1.15
2023-12-24T04:20:54.508Z,1.85
2023-12-24T04:21:25.997Z,1.25
2023-12-24T04:22:16.325Z,1.60
2023-12-24T04:22:47.787Z,2.45
2023-12-24T04:23:19.252Z,2.03
2023-12-24T04:24:39.753Z,0.80
2023-12-24T04:25:11.257Z,0.85
2023-12-24T04:25:43.593Z,1.55
2023-12-24T04:26:36.924Z,1.23
2023-12-24T04:27:08.470Z,1.80
2023-12-24T04:27:39.907Z,1.80
2023-12-24T04:28:11.338Z,1.13
2023-12-24T04:28:42.743Z,1.73
2023-12-24T04:29:14.384Z,0.95
2023-12-24T04:29:45.812Z,1.35
2023-12-24T04:30:17.462Z,2.75
2023-12-24T04:30:49.514Z,3.50
2023-12-24T04:31:21.109Z,1.40
2023-12-24T04:32:11.766Z,2.72
2023-12-24T04:32:43.351Z,1.13
2023-12-24T04:33:15.093Z,2.13
2023-12-24T04:33:46.676Z,1.00
2023-12-24T04:34:18.232Z,5.72
2023-12-24T04:34:49.741Z,1.75
2023-12-24T04:35:21.495Z,1.33
2023-12-24T04:35:53.024Z,1.50
2023-12-24T04:36:24.427Z,0.80
2023-12-24T04:36:55.928Z,1.45
2023-12-24T04:37:27.363Z,3.85
2023-12-24T04:38:00.101Z,1.65
2023-12-24T04:38:31.625Z,2.72
2023-12-24T04:39:03.770Z,2.03
2023-12-24T04:39:35.190Z,0.75
2023-12-24T04:40:07.606Z,1.48
2023-12-24T04:40:39.061Z,1.92
2023-12-24T04:41:17.033Z,1.67
2023-12-24T04:41:48.493Z,2.88
2023-12-24T04:42:19.916Z,2.38
2023-12-24T04:42:51.730Z,1.48
2023-12-24T04:43:23.310Z,1.10
2023-12-24T04:43:58.347Z,1.38
2023-12-24T04:44:29.933Z,1.23
2023-12-24T04:45:01.350Z,3.53
2023-12-24T04:45:32.813Z,1.48
2023-12-24T04:46:04.249Z,3.60
2023-12-24T04:46:41.723Z,1.40
2023-12-24T04:47:13.216Z,2.10
2023-12-24T04:47:44.735Z,2.80
2023-12-24T04:48:16.317Z,3.25
2023-12-24T04:48:47.902Z,2.90
2023-12-24T04:49:19.485Z,4.82
2023-12-24T04:49:50.965Z,1.60
2023-12-24T04:50:22.641Z,1.45
2023-12-24T04:50:54.048Z,3.97
2023-12-24T04:51:25.486Z,1.55
2023-12-24T04:51:57.011Z,3.05
2023-12-24T04:52:28.460Z,1.27
2023-12-24T04:53:00.001Z,1.80
2023-12-24T04:53:31.483Z,2.45
2023-12-24T04:54:04.320Z,2.58
2023-12-24T04:54:35.804Z,0.82
2023-12-24T04:55:07.557Z,1.67
2023-12-24T04:55:39.054Z,2.25
2023-12-24T04:56:20.087Z,1.92
2023-12-24T04:56:51.555Z,2.17
2023-12-24T04:57:22.969Z,1.52
2023-12-24T04:57:54.443Z,1.58
2023-12-24T04:58:26.077Z,1.33
2023-12-24T04:59:15.982Z,2.35
2023-12-24T04:59:47.509Z,2.47
2023-12-24T05:00:19.219Z,2.05
2023-12-24T05:00:51.919Z,1.20
2023-12-24T05:01:23.364Z,2.72
2023-12-24T05:01:54.732Z,2.20
2023-12-24T05:02:26.272Z,2.38
2023-12-24T05:03:16.698Z,1.65
2023-12-24T05:04:37.506Z,4.22
2023-12-24T05:05:09.835Z,1.67
2023-12-24T05:05:41.599Z,2.35
2023-12-24T05:06:13.428Z,3.03
2023-12-24T05:06:45.317Z,1.60
2023-12-24T05:07:17.071Z,2.35
2023-12-24T05:07:48.567Z,2.95
2023-12-24T05:08:20.076Z,3.35
2023-12-24T05:08:51.501Z,1.33
2023-12-24T05:09:22.920Z,2.20
2023-12-24T05:09:54.410Z,1.75
2023-12-24T05:10:25.891Z,1.80
2023-12-24T05:10:57.429Z,1.10
2023-12-24T05:11:28.974Z,3.72
2023-12-24T05:12:00.442Z,2.30
2023-12-24T05:12:31.943Z,1.05
2023-12-24T05:13:03.569Z,2.38
2023-12-24T05:13:36.445Z,1.63
2023-12-24T05:14:07.922Z,4.05
2023-12-24T05:14:39.626Z,2.55
2023-12-24T05:15:11.169Z,3.08
2023-12-24T05:15:42.623Z,4.30
2023-12-24T05:16:14.019Z,2.75
2023-12-24T05:17:04.143Z,3.65
2023-12-24T05:17:35.777Z,3.33
2023-12-24T05:18:07.649Z,2.75
2023-12-24T05:18:39.486Z,3.40
2023-12-24T05:19:11.042Z,3.75
2023-12-24T05:19:42.466Z,3.88
2023-12-24T05:20:13.960Z,2.08
2023-12-24T05:20:45.468Z,3.33
2023-12-24T05:21:16.964Z,2.70
2023-12-24T05:22:06.777Z,2.85
2023-12-24T05:22:38.185Z,2.88
2023-12-24T05:23:10.473Z,2.17
2023-12-24T05:23:41.967Z,3.83
2023-12-24T05:24:13.436Z,2.35
2023-12-24T05:24:45.084Z,4.40
2023-12-24T05:25:16.638Z,1.27
2023-12-24T05:25:48.678Z,1.95
2023-12-24T05:26:20.174Z,3.60
2023-12-24T05:27:40.621Z,2.15
2023-12-24T05:28:12.312Z,2.13
2023-12-24T05:28:44.109Z,2.33
2023-12-24T05:29:15.734Z,2.13
2023-12-24T05:29:47.225Z,2.88
2023-12-24T05:30:18.718Z,2.75
2023-12-24T05:31:08.989Z,2.65
2023-12-24T05:31:41.174Z,2.30
2023-12-24T05:32:31.300Z,2.40
2023-12-24T05:33:03.249Z,4.78
2023-12-24T05:33:34.991Z,3.05
2023-12-24T05:34:07.040Z,4.55
2023-12-24T05:34:38.588Z,2.83
2023-12-24T05:35:10.425Z,2.33
2023-12-24T05:35:42.041Z,3.53
2023-12-24T05:36:33.041Z,4.13
2023-12-24T05:37:04.670Z,6.88
2023-12-24T05:37:36.104Z,2.20
2023-12-24T05:38:26.197Z,4.80
2023-12-24T05:38:57.967Z,1.95
2023-12-24T05:39:29.394Z,4.00
2023-12-24T05:40:49.623Z,3.60
2023-12-24T05:41:21.122Z,3.03
2023-12-24T05:41:52.677Z,4.60
2023-12-24T05:42:24.137Z,3.05
2023-12-24T05:42:55.621Z,3.38
2023-12-24T05:43:27.030Z,2.50
2023-12-24T05:43:59.591Z,4.75
2023-12-24T05:44:31.499Z,4.35
2023-12-24T05:45:03.031Z,3.30
2023-12-24T05:45:37.325Z,2.88
2023-12-24T05:46:15.199Z,4.07
2023-12-24T05:46:51.921Z,2.92
2023-12-24T05:47:23.523Z,2.03
2023-12-24T05:47:55.305Z,2.55
2023-12-24T05:48:26.834Z,3.75
2023-12-24T05:48:58.333Z,2.17
2023-12-24T05:49:29.860Z,2.90
2023-12-24T05:50:01.350Z,3.50
2023-12-24T05:50:32.846Z,3.78
2023-12-24T05:51:04.458Z,4.60
2023-12-24T05:51:35.989Z,7.47
2023-12-24T05:52:07.547Z,4.53
2023-12-24T05:52:40.409Z,3.03
2023-12-24T05:53:11.882Z,4.38
2023-12-24T05:53:43.488Z,4.97
2023-12-24T05:54:15.036Z,3.03
2023-12-24T05:54:46.541Z,4.18
2023-12-24T05:55:18.050Z,3.20
2023-12-24T05:55:49.521Z,5.38
2023-12-24T05:56:21.018Z,5.20
2023-12-24T05:56:52.603Z,6.17
2023-12-24T05:57:24.025Z,7.18
2023-12-24T05:58:14.204Z,4.80
2023-12-24T05:58:45.621Z,3.90
2023-12-24T05:59:17.151Z,6.03
2023-12-24T05:59:48.949Z,5.82
2023-12-24T06:00:20.645Z,6.07
2023-12-24T06:00:52.906Z,10.10
2023-12-24T06:01:24.413Z,6.85
2023-12-24T06:01:55.919Z,5.22
2023-12-24T06:02:27.500Z,4.23
2023-12-24T06:02:59.067Z,5.03
2023-12-24T06:03:30.987Z,6.28
2023-12-24T06:04:03.572Z,6.50
2023-12-24T06:05:23.995Z,5.40
2023-12-24T06:05:55.565Z,5.55
2023-12-24T06:06:27.184Z,6.75
2023-12-24T06:06:58.672Z,5.88
2023-12-24T06:07:30.048Z,6.93
2023-12-24T06:08:01.576Z,5.23
2023-12-24T06:08:33.119Z,4.35
2023-12-24T06:09:04.662Z,3.38
2023-12-24T06:09:36.248Z,5.78
2023-12-24T06:10:08.939Z,5.47
2023-12-24T06:10:40.380Z,5.40
2023-12-24T06:11:18.394Z,3.03
2023-12-24T06:11:49.851Z,3.58
2023-12-24T06:12:21.298Z,5.65
2023-12-24T06:12:55.276Z,5.90
2023-12-24T06:13:26.897Z,4.77
2023-12-24T06:13:58.326Z,10.15
2023-12-24T06:14:29.817Z,4.97
2023-12-24T06:15:02.582Z,5.40
2023-12-24T06:15:34.154Z,5.30
2023-12-24T06:16:05.812Z,5.10
2023-12-24T06:16:37.321Z,7.95
2023-12-24T06:17:08.878Z,5.90
2023-12-24T06:17:40.520Z,5.28
2023-12-24T06:18:14.248Z,4.90
2023-12-24T06:18:46.006Z,6.50
2023-12-24T06:19:18.454Z,7.90
2023-12-24T06:19:50.178Z,4.65
2023-12-24T06:20:21.829Z,3.65
2023-12-24T06:20:53.340Z,4.85
2023-12-24T06:21:25.314Z,5.38
2023-12-24T06:21:56.813Z,3.55
2023-12-24T06:22:28.344Z,3.28
2023-12-24T06:23:00.097Z,4.68
2023-12-24T06:23:33.122Z,3.08
2023-12-24T06:24:04.896Z,5.53
2023-12-24T06:24:36.412Z,5.43
2023-12-24T06:25:07.873Z,4.28
2023-12-24T06:25:41.155Z,5.10
2023-12-24T06:26:12.907Z,8.23
2023-12-24T06:26:44.391Z,3.78
2023-12-24T06:27:15.799Z,7.13
2023-12-24T06:28:05.731Z,7.70
2023-12-24T06:28:37.161Z,5.45
2023-12-24T06:29:08.617Z,6.55
2023-12-24T06:29:40.259Z,6.30
2023-12-24T06:30:12.665Z,5.10
2023-12-24T06:30:44.199Z,4.70
2023-12-24T06:31:23.886Z,5.25
2023-12-24T06:31:58.339Z,9.50
2023-12-24T06:32:29.888Z,12.20
2023-12-24T06:33:01.469Z,10.30
2023-12-24T06:34:21.877Z,5.53
2023-12-24T06:34:53.331Z,6.00
2023-12-24T06:35:43.166Z,4.67
2023-12-24T06:36:14.621Z,2.92
2023-12-24T06:36:46.102Z,4.05
2023-12-24T06:37:17.560Z,6.25
2023-12-24T06:37:49.116Z,6.70
2023-12-24T06:38:20.573Z,5.45
2023-12-24T06:38:52.040Z,6.28
2023-12-24T06:39:42.308Z,5.95
2023-12-24T06:40:13.924Z,5.90
2023-12-24T06:40:45.396Z,7.35
2023-12-24T06:41:16.830Z,5.47
2023-12-24T06:41:48.918Z,5.25
2023-12-24T06:42:20.428Z,4.22
2023-12-24T06:42:52.872Z,7.90
2023-12-24T06:43:24.469Z,6.15
2023-12-24T06:43:55.866Z,4.15
2023-12-24T06:44:27.323Z,4.47
2023-12-24T06:44:58.823Z,4.32
2023-12-24T06:45:30.252Z,6.85
2023-12-24T06:46:01.673Z,7.95
2023-12-24T06:46:33.123Z,5.80
2023-12-24T06:47:04.650Z,6.05
2023-12-24T06:47:36.212Z,3.53
2023-12-24T06:48:08.079Z,3.17
2023-12-24T06:48:43.093Z,6.75
2023-12-24T06:49:14.602Z,6.63
2023-12-24T06:49:46.297Z,5.43
2023-12-24T06:50:19.038Z,2.63
2023-12-24T06:50:52.276Z,5.20
2023-12-24T06:51:24.017Z,7.00
2023-12-24T06:51:55.436Z,5.97
2023-12-24T06:52:27.640Z,5.53
2023-12-24T06:53:17.411Z,8.02
2023-12-24T06:53:48.819Z,10.88
2023-12-24T06:54:20.249Z,5.18
2023-12-24T06:54:51.742Z,8.63
2023-12-24T06:55:23.186Z,8.13
2023-12-24T06:55:54.621Z,8.13
2023-12-24T06:56:26.230Z,6.95
2023-12-24T06:56:57.940Z,6.35
2023-12-24T06:57:29.348Z,7.37
2023-12-24T06:58:03.720Z,14.05
2023-12-24T06:58:35.245Z,7.13
2023-12-24T06:59:06.751Z,6.32
2023-12-24T06:59:38.425Z,7.47
2023-12-24T07:00:10.469Z,9.57
2023-12-24T07:00:41.918Z,9.23
2023-12-24T07:01:13.395Z,7.35
2023-12-24T07:01:44.877Z,6.05
2023-12-24T07:02:17.291Z,9.27
2023-12-24T07:02:48.752Z,10.30
2023-12-24T07:03:20.372Z,8.75
2023-12-24T07:03:51.954Z,8.55
2023-12-24T07:04:26.136Z,11.60
2023-12-24T07:04:58.653Z,12.55
2023-12-24T07:05:35.404Z,7.93
2023-12-24T07:06:07.078Z,9.63
2023-12-24T07:06:38.723Z,10.00
2023-12-24T07:07:10.255Z,9.07
2023-12-24T07:07:41.690Z,10.60
2023-12-24T07:08:13.684Z,15.47
2023-12-24T07:08:45.581Z,11.98
2023-12-24T07:09:35.880Z,9.75
2023-12-24T07:10:07.520Z,15.82
2023-12-24T07:10:39.496Z,12.70
2023-12-24T07:11:10.918Z,13.60
2023-12-24T07:11:42.434Z,13.98
2023-12-24T07:12:13.941Z,14.70
2023-12-24T07:12:45.397Z,8.32
2023-12-24T07:13:16.913Z,6.85
2023-12-24T07:13:48.410Z,8.03
2023-12-24T07:14:19.891Z,14.55
2023-12-24T07:14:51.385Z,11.25
2023-12-24T07:15:22.814Z,14.05
2023-12-24T07:15:54.360Z,7.85
2023-12-24T07:16:25.889Z,14.27
2023-12-24T07:16:57.357Z,11.10
2023-12-24T07:17:28.839Z,8.77
2023-12-24T07:18:00.669Z,14.02
2023-12-24T07:18:32.289Z,9.82
2023-12-24T07:19:08.647Z,12.70
2023-12-24T07:19:40.101Z,14.77
2023-12-24T07:20:12.903Z,13.35
2023-12-24T07:20:44.661Z,13.38
2023-12-24T07:21:16.135Z,10.25
2023-12-24T07:22:06.227Z,15.73